createdAt,value
2018-09-15T00:00:48.562Z,850.77
2018-09-15T00:02:50.849Z,829.72
2018-09-15T00:04:53.143Z,822.17
2018-09-15T00:06:55.444Z,818.20
2018-09-15T00:08:57.705Z,838.45
2018-09-15T00:10:59.968Z,787.77
2018-09-15T00:13:02.251Z,712.48
2018-09-15T00:15:04.554Z,752.88
2018-09-15T00:17:06.825Z,750.95
2018-09-15T00:19:09.125Z,757.92
2018-09-15T00:21:11.419Z,772.10
2018-09-15T00:23:13.750Z,777.17
2018-09-15T00:25:15.968Z,770.98
2018-09-15T00:27:18.225Z,755.63
2018-09-15T00:29:20.555Z,770.52
2018-09-15T00:31:22.796Z,766.98
2018-09-15T00:33:25.120Z,748.30
2018-09-15T00:35:27.427Z,750.45
2018-09-15T00:37:29.687Z,749.35
2018-09-15T00:39:31.993Z,748.90
2018-09-15T00:41:34.287Z,745.85
2018-09-15T00:43:36.563Z,744.13
2018-09-15T00:45:38.819Z,734.98
2018-09-15T00:47:41.128Z,740.98
2018-09-15T00:49:43.395Z,726.52
2018-09-15T00:51:45.662Z,734.30
2018-09-15T00:53:48.063Z,728.23
2018-09-15T00:55:50.341Z,724.98
2018-09-15T00:57:52.591Z,715.60
2018-09-15T00:59:54.887Z,707.52
2018-09-15T01:01:57.147Z,706.52
2018-09-15T01:03:59.434Z,693.80
2018-09-15T01:06:01.699Z,700.85
2018-09-15T01:08:03.999Z,695.52
2018-09-15T01:10:06.271Z,651.82
2018-09-15T01:12:08.556Z,650.25
2018-09-15T01:14:11.263Z,660.27
2018-09-15T01:16:13.509Z,685.58
2018-09-15T01:18:15.800Z,669.10
2018-09-15T01:20:18.118Z,674.88
2018-09-15T01:22:20.394Z,667.92
2018-09-15T01:24:22.684Z,631.75
2018-09-15T01:26:24.984Z,657.10
2018-09-15T01:28:27.294Z,656.75
2018-09-15T01:30:29.568Z,626.48
2018-09-15T01:32:31.861Z,654.48
2018-09-15T01:34:34.119Z,646.80
2018-09-15T01:36:36.401Z,645.08
2018-09-15T01:38:38.704Z,616.45
2018-09-15T01:40:40.952Z,638.77
2018-09-15T01:42:43.211Z,577.73
2018-09-15T01:44:45.506Z,600.48
2018-09-15T01:46:47.807Z,623.70
2018-09-15T01:48:50.101Z,626.73
2018-09-15T01:50:52.370Z,622.20
2018-09-15T01:52:54.655Z,619.15
2018-09-15T01:54:56.922Z,596.98
2018-09-15T01:56:59.181Z,608.38
2018-09-15T01:59:01.463Z,616.92
2018-09-15T02:01:03.771Z,613.83
2018-09-15T02:03:06.076Z,592.05
2018-09-15T02:05:08.353Z,558.83
2018-09-15T02:07:10.626Z,594.35
2018-09-15T02:09:12.935Z,573.23
2018-09-15T02:11:15.179Z,570.95
2018-09-15T02:13:17.451Z,576.90
2018-09-15T02:15:19.710Z,575.33
2018-09-15T02:17:22.054Z,567.30
2018-09-15T02:19:24.307Z,559.87
2018-09-15T02:21:26.582Z,556.78
2018-09-15T02:23:28.863Z,567.75
2018-09-15T02:25:31.140Z,560.08
2018-09-15T02:27:33.399Z,546.75
2018-09-15T02:29:35.660Z,546.58
2018-09-15T02:31:37.935Z,540.10
2018-09-15T02:33:40.231Z,545.45
2018-09-15T02:35:42.467Z,541.73
2018-09-15T02:37:44.726Z,544.33
2018-09-15T02:39:47.019Z,510.90
2018-09-15T02:41:49.277Z,527.58
2018-09-15T02:43:51.566Z,524.52
2018-09-15T02:45:53.895Z,528.27
2018-09-15T02:47:56.199Z,509.07
2018-09-15T02:49:58.460Z,513.27
2018-09-15T02:52:00.753Z,514.40
2018-09-15T02:54:02.999Z,512.52
2018-09-15T02:56:05.343Z,502.97
2018-09-15T02:58:07.620Z,494.13
2018-09-15T03:00:09.917Z,490.10
2018-09-15T03:02:12.251Z,485.73
2018-09-15T03:04:14.492Z,489.43
2018-09-15T03:06:16.758Z,475.20
2018-09-15T03:08:19.042Z,468.60
2018-09-15T03:10:21.328Z,479.48
2018-09-15T03:12:23.625Z,467.95
2018-09-15T03:14:25.884Z,461.32
2018-09-15T03:16:28.170Z,469.05
2018-09-15T03:18:30.441Z,464.80
2018-09-15T03:20:32.700Z,448.23
2018-09-15T03:22:34.999Z,464.27
2018-09-15T03:24:37.305Z,464.45
2018-09-15T03:26:39.551Z,458.80
2018-09-15T03:28:41.849Z,455.65
2018-09-15T03:30:44.104Z,450.53
2018-09-15T03:32:46.396Z,443.35
2018-09-15T03:34:48.657Z,446.45
2018-09-15T03:36:50.944Z,431.87
2018-09-15T03:38:53.242Z,439.02
2018-09-15T03:40:55.502Z,430.77
2018-09-15T03:42:57.882Z,439.82
2018-09-15T03:45:00.156Z,431.75
2018-09-15T03:47:02.419Z,429.35
2018-09-15T03:49:04.715Z,436.60
2018-09-15T03:51:06.974Z,413.60
2018-09-15T03:53:09.264Z,414.85
2018-09-15T03:55:11.527Z,431.20
2018-09-15T03:57:13.798Z,419.62
2018-09-15T03:59:16.113Z,426.02
2018-09-15T04:01:18.359Z,421.50
2018-09-15T04:03:20.637Z,417.45
2018-09-15T04:05:22.904Z,408.98
2018-09-15T04:07:25.169Z,374.98
2018-09-15T04:09:27.462Z,403.40
2018-09-15T04:11:29.741Z,396.43
2018-09-15T04:13:32.006Z,376.58
2018-09-15T04:15:34.304Z,358.87
2018-09-15T04:17:36.607Z,397.50
2018-09-15T04:19:38.829Z,393.55
2018-09-15T04:21:41.142Z,342.87
2018-09-15T04:23:43.391Z,358.93
2018-09-15T04:25:45.689Z,369.20
2018-09-15T04:27:47.987Z,350.40
2018-09-15T04:29:50.255Z,356.85
2018-09-15T04:31:52.541Z,367.07
2018-09-15T04:33:54.810Z,328.25
2018-09-15T04:35:57.084Z,320.42
2018-09-15T04:37:59.372Z,327.13
2018-09-15T04:40:01.662Z,297.67
2018-09-15T04:42:03.958Z,303.25
2018-09-15T04:44:06.237Z,316.73
2018-09-15T04:46:08.498Z,322.82
2018-09-15T04:48:10.782Z,287.57
2018-09-15T04:50:13.047Z,297.25
2018-09-15T04:52:15.363Z,291.57
2018-09-15T04:54:17.614Z,294.23
2018-09-15T04:56:19.926Z,293.77
2018-09-15T04:58:22.215Z,309.12
2018-09-15T05:00:24.485Z,283.87
2018-09-15T05:02:26.748Z,282.40
2018-09-15T05:04:29.055Z,287.33
2018-09-15T05:06:32.174Z,289.65
2018-09-15T05:08:34.694Z,277.20
2018-09-15T05:10:36.947Z,271.87
2018-09-15T05:12:39.278Z,296.82
2018-09-15T05:14:41.512Z,273.35
2018-09-15T05:16:43.817Z,287.45
2018-09-15T05:18:46.110Z,265.37
2018-09-15T05:20:48.381Z,271.05
2018-09-15T05:22:50.662Z,276.50
2018-09-15T05:24:52.945Z,273.75
2018-09-15T05:26:55.199Z,258.30
2018-09-15T05:28:57.485Z,263.18
2018-09-15T05:30:59.767Z,261.62
2018-09-15T05:33:02.027Z,255.32
2018-09-15T05:35:04.310Z,261.45
2018-09-15T05:37:06.584Z,249.67
2018-09-15T05:39:08.886Z,253.32
2018-09-15T05:41:11.163Z,260.10
2018-09-15T05:43:13.440Z,235.08
2018-09-15T05:45:15.743Z,242.90
2018-09-15T05:47:18.047Z,233.57
2018-09-15T05:49:20.293Z,230.32
2018-09-15T05:51:22.627Z,237.17
2018-09-15T05:53:24.950Z,230.60
2018-09-15T05:55:27.197Z,235.23
2018-09-15T05:57:29.491Z,229.68
2018-09-15T05:59:31.789Z,225.93
2018-09-15T06:01:34.118Z,224.20
2018-09-15T06:03:36.973Z,229.82
2018-09-15T06:05:39.251Z,223.25
2018-09-15T06:07:41.500Z,228.92
2018-09-15T06:09:43.799Z,215.92
2018-09-15T06:11:46.063Z,217.07
2018-09-15T06:13:48.442Z,229.87
2018-09-15T06:15:50.660Z,232.40
2018-09-15T06:17:52.931Z,216.27
2018-09-15T06:19:55.187Z,209.52
2018-09-15T06:21:57.471Z,221.28
2018-09-15T06:23:59.722Z,205.30
2018-09-15T06:26:02.029Z,199.62
2018-09-15T06:28:04.287Z,216.02
2018-09-15T06:30:06.574Z,215.07
2018-09-15T06:32:08.833Z,208.32
2018-09-15T06:34:11.133Z,207.62
2018-09-15T06:36:13.441Z,202.70
2018-09-15T06:38:15.690Z,209.10
2018-09-15T06:40:17.965Z,198.85
2018-09-15T06:42:20.283Z,207.62
2018-09-15T06:44:22.526Z,202.28
2018-09-15T06:46:24.841Z,184.00
2018-09-15T06:48:27.110Z,205.22
2018-09-15T06:50:29.378Z,196.63
2018-09-15T06:52:31.706Z,193.35
2018-09-15T06:54:33.952Z,189.18
2018-09-15T06:56:36.243Z,185.15
2018-09-15T06:58:38.520Z,191.35
2018-09-15T07:00:40.815Z,197.93
2018-09-15T07:02:43.121Z,189.03
2018-09-15T07:04:45.407Z,191.12
2018-09-15T07:06:47.696Z,185.25
2018-09-15T07:08:49.967Z,189.87
2018-09-15T07:10:52.260Z,181.28
2018-09-15T07:12:54.527Z,176.05
2018-09-15T07:14:56.837Z,176.95
2018-09-15T07:16:59.118Z,169.65
2018-09-15T07:19:01.367Z,169.70
2018-09-15T07:21:03.667Z,167.10
2018-09-15T07:23:05.921Z,170.70
2018-09-15T07:25:08.181Z,170.15
2018-09-15T07:27:10.492Z,163.65
2018-09-15T07:29:12.773Z,172.60
2018-09-15T07:31:15.112Z,159.10
2018-09-15T07:33:17.355Z,154.40
2018-09-15T07:35:19.672Z,157.35
2018-09-15T07:37:21.945Z,151.53
2018-09-15T07:39:24.234Z,171.50
2018-09-15T07:41:26.508Z,163.45
2018-09-15T07:43:28.783Z,153.27
2018-09-15T07:45:31.047Z,154.68
2018-09-15T07:47:33.345Z,150.18
2018-09-15T07:49:35.600Z,145.80
2018-09-15T07:51:37.947Z,142.07
2018-09-15T07:53:40.224Z,144.15
2018-09-15T07:55:42.504Z,144.45
2018-09-15T07:57:44.915Z,145.77
2018-09-15T07:59:47.076Z,139.05
2018-09-15T08:01:49.360Z,139.22
2018-09-15T08:03:52.174Z,137.88
2018-09-15T08:05:54.450Z,141.65
2018-09-15T08:07:56.725Z,292.48
2018-09-15T08:09:59.016Z,970.67
2018-09-15T08:12:01.311Z,199.38
2018-09-15T08:14:03.584Z,88.70
2018-09-15T08:16:05.826Z,53.52
2018-09-15T08:18:08.119Z,42.13
2018-09-15T08:20:10.371Z,30.68
2018-09-15T08:22:12.664Z,32.00
2018-09-15T08:24:14.931Z,423.85
2018-09-15T08:26:17.241Z,409.52
2018-09-15T08:28:19.548Z,197.95
2018-09-15T08:30:21.833Z,80.83
2018-09-15T08:32:24.101Z,42.40
2018-09-15T08:34:26.410Z,28.05
2018-09-15T08:36:28.693Z,118.90
2018-09-15T08:38:30.990Z,139.25
2018-09-15T08:40:33.269Z,110.28
2018-09-15T08:42:35.579Z,516.08
2018-09-15T08:44:37.978Z,458.30
2018-09-15T08:46:40.220Z,188.85
2018-09-15T08:48:42.542Z,65.22
2018-09-15T08:50:44.787Z,46.45
2018-09-15T08:52:47.044Z,166.80
2018-09-15T08:54:49.356Z,86.12
2018-09-15T08:56:51.642Z,56.60
2018-09-15T08:58:53.911Z,27.95
2018-09-15T09:00:56.165Z,22.70
2018-09-15T09:02:58.469Z,19.23
2018-09-15T09:05:00.752Z,15.58
2018-09-15T09:07:03.046Z,31.25
2018-09-15T09:09:05.321Z,33.90
2018-09-15T09:11:07.626Z,60.80
2018-09-15T09:13:09.926Z,34.60
2018-09-15T09:15:12.210Z,35.33
2018-09-15T09:17:14.489Z,26.17
2018-09-15T09:19:16.757Z,22.15
2018-09-15T09:21:19.075Z,20.25
2018-09-15T09:23:21.383Z,14.80
2018-09-15T09:25:23.645Z,12.07
2018-09-15T09:27:25.903Z,71.47
2018-09-15T09:29:28.206Z,48.38
2018-09-15T09:31:30.473Z,222.93
2018-09-15T09:33:32.739Z,92.25
2018-09-15T09:35:35.028Z,47.83
2018-09-15T09:37:37.304Z,25.65
2018-09-15T09:39:39.603Z,15.58
2018-09-15T09:41:41.877Z,18.27
2018-09-15T09:43:44.167Z,16.40
2018-09-15T09:45:46.425Z,10.70
2018-09-15T09:47:48.702Z,18.30
2018-09-15T09:49:51.005Z,17.50
2018-09-15T09:51:53.253Z,16.00
2018-09-15T09:53:55.567Z,13.15
2018-09-15T09:55:57.822Z,16.85
2018-09-15T09:58:00.128Z,10.85
2018-09-15T10:00:02.375Z,16.07
2018-09-15T10:02:04.653Z,13.08
2018-09-15T10:04:06.925Z,11.03
2018-09-15T10:06:09.167Z,12.98
2018-09-15T10:08:11.454Z,10.55
2018-09-15T10:10:13.720Z,9.88
2018-09-15T10:12:16.002Z,35.43
2018-09-15T10:14:18.296Z,179.45
2018-09-15T10:16:20.684Z,80.62
2018-09-15T10:18:22.951Z,61.37
2018-09-15T10:20:25.241Z,45.23
2018-09-15T10:22:27.485Z,27.95
2018-09-15T10:24:29.801Z,29.72
2018-09-15T10:26:32.056Z,13.78
2018-09-15T10:28:34.368Z,10.75
2018-09-15T10:30:36.677Z,13.85
2018-09-15T10:32:39.005Z,39.18
2018-09-15T10:34:41.330Z,63.15
2018-09-15T10:36:43.577Z,73.52
2018-09-15T10:38:45.854Z,47.65
2018-09-15T10:40:48.121Z,35.48
2018-09-15T10:42:50.393Z,17.17
2018-09-15T10:44:52.664Z,15.43
2018-09-15T10:46:54.962Z,32.38
2018-09-15T10:48:57.246Z,26.27
2018-09-15T10:50:59.515Z,21.75
2018-09-15T10:53:01.858Z,11.00
2018-09-15T10:55:04.093Z,8.93
2018-09-15T10:57:06.415Z,13.03
2018-09-15T10:59:08.839Z,9.10
2018-09-15T11:01:11.080Z,5.92
2018-09-15T11:03:13.368Z,7.53
2018-09-15T11:05:15.616Z,9.80
2018-09-15T11:07:17.876Z,8.13
2018-09-15T11:09:20.208Z,8.13
2018-09-15T11:11:22.505Z,7.10
2018-09-15T11:13:24.802Z,9.15
2018-09-15T11:15:27.069Z,5.65
2018-09-15T11:17:29.335Z,7.70
2018-09-15T11:19:31.782Z,6.90
2018-09-15T11:21:34.031Z,9.70
2018-09-15T11:23:36.312Z,107.90
2018-09-15T11:25:38.606Z,282.37
2018-09-15T11:27:40.873Z,98.35
2018-09-15T11:29:43.139Z,91.12
2018-09-15T11:31:45.417Z,43.25
2018-09-15T11:33:47.715Z,29.55
2018-09-15T11:35:49.997Z,18.20
2018-09-15T11:37:52.271Z,15.50
2018-09-15T11:39:54.552Z,387.82
2018-09-15T11:41:56.821Z,223.18
2018-09-15T11:43:59.143Z,117.60
2018-09-15T11:46:01.437Z,84.92
2018-09-15T11:48:03.702Z,45.92
2018-09-15T11:50:05.991Z,28.32
2018-09-15T11:52:08.253Z,20.77
2018-09-15T11:54:10.549Z,19.45
2018-09-15T11:56:12.834Z,16.40
2018-09-15T11:58:15.378Z,9.93
2018-09-15T12:00:17.657Z,13.90
2018-09-15T12:02:19.925Z,11.03
2018-09-15T12:04:22.262Z,9.88
2018-09-15T12:06:24.436Z,10.90
2018-09-15T12:08:26.725Z,10.13
2018-09-15T12:10:28.955Z,8.38
2018-09-15T12:12:31.196Z,9.18
2018-09-15T12:14:33.482Z,8.88
2018-09-15T12:16:35.791Z,5.60
2018-09-15T12:18:38.048Z,16.17
2018-09-15T12:20:40.337Z,21.25
2018-09-15T12:22:42.578Z,19.80
2018-09-15T12:24:44.867Z,18.80
2018-09-15T12:26:47.144Z,15.05
2018-09-15T12:28:49.432Z,15.08
2018-09-15T12:30:51.686Z,12.50
2018-09-15T12:32:53.973Z,10.43
2018-09-15T12:34:56.250Z,7.22
2018-09-15T12:36:58.560Z,7.92
2018-09-15T12:39:00.808Z,11.93
2018-09-15T12:41:05.068Z,5.90
2018-09-15T12:43:07.366Z,10.93
2018-09-15T12:45:09.681Z,5.95
2018-09-15T12:47:11.944Z,7.35
2018-09-15T12:49:14.189Z,11.33
2018-09-15T12:51:16.464Z,5.55
2018-09-15T12:53:18.764Z,10.82
2018-09-15T12:55:21.033Z,6.10
2018-09-15T12:57:23.341Z,8.73
2018-09-15T12:59:25.593Z,7.30
2018-09-15T13:01:27.843Z,7.40
2018-09-15T13:03:30.128Z,45.80
2018-09-15T13:05:32.420Z,113.77
2018-09-15T13:07:34.676Z,73.80
2018-09-15T13:09:36.977Z,61.00
2018-09-15T13:11:39.240Z,50.25
2018-09-15T13:13:41.521Z,28.92
2018-09-15T13:15:43.791Z,19.10
2018-09-15T13:17:46.064Z,11.30
2018-09-15T13:19:48.318Z,11.78
2018-09-15T13:21:50.564Z,10.95
2018-09-15T13:23:52.869Z,9.23
2018-09-15T13:25:55.122Z,8.48
2018-09-15T13:27:57.358Z,11.97
2018-09-15T13:29:59.741Z,7.20
2018-09-15T13:32:01.924Z,10.48
2018-09-15T13:34:04.197Z,12.63
2018-09-15T13:36:06.545Z,9.58
2018-09-15T13:38:08.788Z,6.70
2018-09-15T13:40:11.113Z,14.78
2018-09-15T13:42:13.356Z,5.30
2018-09-15T13:44:15.619Z,10.82
2018-09-15T13:46:17.940Z,26.52
2018-09-15T13:48:20.225Z,20.43
2018-09-15T13:50:22.483Z,24.70
2018-09-15T13:52:24.791Z,23.83
2018-09-15T13:54:27.032Z,15.75
2018-09-15T13:56:29.728Z,9.50
2018-09-15T13:58:31.988Z,12.43
2018-09-15T14:00:34.287Z,8.33
2018-09-15T14:02:36.577Z,8.08
2018-09-15T14:04:38.927Z,7.03
2018-09-15T14:06:41.169Z,6.70
2018-09-15T14:08:43.452Z,27.62
2018-09-15T14:10:45.794Z,57.08
2018-09-15T14:12:48.018Z,56.05
2018-09-15T14:14:50.274Z,57.35
2018-09-15T14:16:52.599Z,39.70
2018-09-15T14:18:54.848Z,23.50
2018-09-15T14:20:57.164Z,13.93
2018-09-15T14:22:59.445Z,12.25
2018-09-15T14:25:01.742Z,15.15
2018-09-15T14:27:04.108Z,20.30
2018-09-15T14:29:06.360Z,22.73
2018-09-15T14:31:08.672Z,23.25
2018-09-15T14:33:10.985Z,18.77
2018-09-15T14:35:13.236Z,17.32
2018-09-15T14:37:15.532Z,15.72
2018-09-15T14:39:17.793Z,32.70
2018-09-15T14:41:20.066Z,32.50
2018-09-15T14:43:22.357Z,42.15
2018-09-15T14:45:24.634Z,58.17
2018-09-15T14:47:26.924Z,29.98
2018-09-15T14:49:29.190Z,26.60
2018-09-15T14:51:31.437Z,24.67
2018-09-15T14:53:33.741Z,30.97
2018-09-15T14:55:36.025Z,25.27
2018-09-15T14:57:38.300Z,27.15
2018-09-15T14:59:40.565Z,18.12
2018-09-15T15:01:42.918Z,19.48
2018-09-15T15:03:45.148Z,18.82
2018-09-15T15:05:47.436Z,62.33
2018-09-15T15:07:49.755Z,268.97
2018-09-15T15:09:51.998Z,130.90
2018-09-15T15:11:54.285Z,78.70
2018-09-15T15:13:56.548Z,48.38
2018-09-15T15:15:58.850Z,26.68
2018-09-15T15:18:01.112Z,20.62
2018-09-15T15:20:03.424Z,13.53
2018-09-15T15:22:05.733Z,11.08
2018-09-15T15:24:07.988Z,15.60
2018-09-15T15:26:10.356Z,12.07
2018-09-15T15:28:12.558Z,12.75
2018-09-15T15:30:14.772Z,6.03
2018-09-15T15:32:17.080Z,4.55
2018-09-15T15:34:19.385Z,5.08
2018-09-15T15:36:21.669Z,5.03
2018-09-15T15:38:23.956Z,1281.20
2018-09-15T15:40:26.208Z,228.65
2018-09-15T15:42:28.511Z,104.50
2018-09-15T15:44:30.820Z,54.70
2018-09-15T15:46:33.079Z,28.25
2018-09-15T15:48:35.326Z,27.27
2018-09-15T15:50:37.615Z,864.02
2018-09-15T15:52:39.895Z,112.30
2018-09-15T15:54:42.269Z,299.75
2018-09-15T15:56:44.559Z,99.92
2018-09-15T15:58:46.979Z,241.35
2018-09-15T16:00:49.092Z,142.90
2018-09-15T16:02:51.388Z,102.10
2018-09-15T16:04:53.654Z,76.97
2018-09-15T16:06:55.967Z,45.25
2018-09-15T16:08:58.245Z,28.70
2018-09-15T16:11:00.574Z,14.95
2018-09-15T16:13:02.834Z,17.00
2018-09-15T16:15:05.125Z,5.97
2018-09-15T16:17:07.409Z,5.90
2018-09-15T16:19:09.649Z,7.83
2018-09-15T16:21:11.900Z,6.33
2018-09-15T16:23:14.176Z,900.88
2018-09-15T16:25:16.568Z,125.27
2018-09-15T16:27:18.817Z,113.32
2018-09-15T16:29:21.049Z,920.03
2018-09-15T16:31:23.372Z,143.85
2018-09-15T16:33:25.667Z,145.55
2018-09-15T16:35:27.933Z,88.90
2018-09-15T16:37:30.278Z,48.25
2018-09-15T16:39:32.520Z,27.48
2018-09-15T16:41:34.833Z,16.75
2018-09-15T16:43:37.129Z,497.17
2018-09-15T16:45:39.444Z,478.45
2018-09-15T16:47:41.735Z,155.40
2018-09-15T16:49:44.015Z,190.18
2018-09-15T16:51:46.290Z,177.00
2018-09-15T16:53:48.632Z,174.35
2018-09-15T16:55:50.917Z,188.95
2018-09-15T16:57:53.276Z,172.95
2018-09-15T16:59:55.578Z,174.50
2018-09-15T17:01:57.833Z,179.65
2018-09-15T17:04:00.151Z,165.85
2018-09-15T17:06:02.465Z,186.37
2018-09-15T17:08:04.732Z,181.45
2018-09-15T17:10:07.058Z,177.25
2018-09-15T17:12:09.296Z,171.40
2018-09-15T17:14:11.598Z,181.40
2018-09-15T17:16:13.848Z,174.35
2018-09-15T17:18:16.112Z,173.70
2018-09-15T17:20:18.423Z,167.70
2018-09-15T17:22:20.760Z,161.03
2018-09-15T17:24:22.965Z,170.02
2018-09-15T17:26:25.260Z,155.80
2018-09-15T17:28:27.574Z,156.45
2018-09-15T17:30:29.852Z,169.20
2018-09-15T17:32:32.134Z,155.27
2018-09-15T17:34:34.466Z,158.75
2018-09-15T17:36:36.766Z,146.53
2018-09-15T17:38:39.038Z,160.82
2018-09-15T17:40:41.318Z,155.95
2018-09-15T17:42:43.627Z,149.65
2018-09-15T17:44:45.871Z,155.12
2018-09-15T17:46:48.149Z,153.75
2018-09-15T17:48:50.426Z,154.12
2018-09-15T17:50:52.747Z,151.35
2018-09-15T17:52:55.004Z,148.32
2018-09-15T17:54:57.270Z,142.93
2018-09-15T17:56:59.571Z,141.65
2018-09-15T17:59:01.870Z,150.35
2018-09-15T18:01:04.124Z,143.25
2018-09-15T18:03:06.384Z,136.15
2018-09-15T18:05:08.674Z,137.77
2018-09-15T18:07:10.935Z,136.68
2018-09-15T18:09:13.215Z,134.60
2018-09-15T18:11:15.485Z,145.22
2018-09-15T18:13:17.794Z,128.10
2018-09-15T18:15:20.062Z,138.47
2018-09-15T18:17:22.330Z,134.80
2018-09-15T18:19:24.613Z,123.90
2018-09-15T18:21:26.932Z,127.02
2018-09-15T18:23:29.281Z,128.55
2018-09-15T18:25:31.559Z,127.00
2018-09-15T18:27:33.847Z,120.62
2018-09-15T18:29:36.142Z,121.25
2018-09-15T18:31:38.415Z,125.38
2018-09-15T18:33:40.668Z,116.28
2018-09-15T18:35:43.020Z,127.00
2018-09-15T18:37:45.272Z,121.62
2018-09-15T18:39:47.529Z,114.82
2018-09-15T18:41:49.812Z,125.42
2018-09-15T18:43:52.082Z,120.62
2018-09-15T18:45:54.358Z,124.18
2018-09-15T18:47:56.643Z,114.42
2018-09-15T18:49:58.934Z,119.28
2018-09-15T18:52:01.186Z,107.32
2018-09-15T18:54:03.498Z,112.03
2018-09-15T18:56:05.765Z,115.50
2018-09-15T18:58:08.066Z,113.75
2018-09-15T19:00:10.316Z,112.05
2018-09-15T19:02:12.639Z,112.85
2018-09-15T19:04:14.930Z,112.25
2018-09-15T19:06:17.242Z,121.13
2018-09-15T19:08:19.509Z,112.68
2018-09-15T19:10:21.810Z,110.83
2018-09-15T19:12:24.099Z,108.32
2018-09-15T19:14:26.406Z,107.55
2018-09-15T19:16:28.652Z,115.32
2018-09-15T19:18:30.930Z,110.35
2018-09-15T19:20:33.222Z,104.90
2018-09-15T19:22:35.494Z,104.63
2018-09-15T19:24:37.789Z,106.52
2018-09-15T19:26:40.090Z,104.87
2018-09-15T19:28:42.632Z,103.42
2018-09-15T19:30:44.920Z,97.70
2018-09-15T19:32:47.197Z,92.78
2018-09-15T19:34:49.815Z,101.70
2018-09-15T19:36:52.119Z,95.75
2018-09-15T19:38:54.433Z,104.90
2018-09-15T19:40:56.699Z,98.00
2018-09-15T19:42:58.994Z,96.82
2018-09-15T19:45:01.276Z,99.62
2018-09-15T19:47:03.516Z,93.70
2018-09-15T19:49:05.840Z,94.58
2018-09-15T19:51:08.092Z,90.95
2018-09-15T19:53:10.345Z,94.42
2018-09-15T19:55:12.646Z,91.37
2018-09-15T19:57:14.893Z,90.72
2018-09-15T19:59:17.437Z,95.65
2018-09-15T20:01:19.610Z,94.58
2018-09-15T20:03:21.886Z,92.78
2018-09-15T20:05:24.201Z,87.25
2018-09-15T20:07:26.451Z,86.55
2018-09-15T20:09:28.742Z,84.83
2018-09-15T20:11:31.014Z,86.72
2018-09-15T20:13:33.258Z,84.40
2018-09-15T20:15:35.560Z,84.30
2018-09-15T20:17:37.839Z,85.42
2018-09-15T20:19:40.084Z,81.92
2018-09-15T20:21:42.389Z,88.27
2018-09-15T20:23:44.800Z,84.15
2018-09-15T20:25:47.132Z,83.80
2018-09-15T20:27:49.409Z,84.47
2018-09-15T20:29:51.665Z,82.20
2018-09-15T20:31:53.979Z,83.07
2018-09-15T20:33:56.241Z,80.60
2018-09-15T20:35:58.508Z,78.47
2018-09-15T20:38:00.797Z,77.82
2018-09-15T20:40:03.067Z,80.45
2018-09-15T20:42:05.322Z,76.30
2018-09-15T20:44:07.618Z,77.58
2018-09-15T20:46:09.886Z,81.30
2018-09-15T20:48:12.217Z,74.62
2018-09-15T20:50:14.461Z,74.03
2018-09-15T20:52:16.768Z,76.82
2018-09-15T20:54:19.058Z,72.32
2018-09-15T20:56:21.320Z,72.72
2018-09-15T20:58:23.604Z,76.15
2018-09-15T21:00:25.883Z,67.60
2018-09-15T21:02:28.148Z,67.62
2018-09-15T21:04:30.383Z,70.37
2018-09-15T21:06:32.692Z,72.27
2018-09-15T21:08:34.971Z,71.50
2018-09-15T21:10:37.265Z,61.18
2018-09-15T21:12:39.534Z,73.45
2018-09-15T21:14:41.804Z,70.60
2018-09-15T21:16:44.097Z,67.25
2018-09-15T21:18:46.359Z,66.60
2018-09-15T21:20:48.653Z,68.25
2018-09-15T21:22:50.913Z,71.20
2018-09-15T21:24:53.183Z,65.12
2018-09-15T21:26:55.503Z,67.25
2018-09-15T21:28:57.751Z,64.37
2018-09-15T21:31:00.069Z,58.35
2018-09-15T21:33:02.327Z,60.45
2018-09-15T21:35:04.652Z,61.37
2018-09-15T21:37:06.889Z,58.28
2018-09-15T21:39:09.130Z,63.30
2018-09-15T21:41:11.431Z,56.70
2018-09-15T21:43:13.727Z,56.80
2018-09-15T21:45:16.013Z,58.00
2018-09-15T21:47:18.303Z,54.23
2018-09-15T21:49:20.625Z,55.20
2018-09-15T21:51:22.874Z,59.75
2018-09-15T21:53:25.131Z,57.75
2018-09-15T21:55:27.445Z,56.50
2018-09-15T21:57:29.708Z,58.40
2018-09-15T21:59:31.955Z,59.42
2018-09-15T22:01:34.277Z,57.53
2018-09-15T22:03:36.586Z,56.40
2018-09-15T22:05:38.841Z,56.42
2018-09-15T22:07:41.092Z,56.37
2018-09-15T22:09:43.417Z,57.15
2018-09-15T22:11:45.691Z,55.30
2018-09-15T22:13:47.941Z,53.50
2018-09-15T22:15:50.529Z,50.03
2018-09-15T22:17:52.790Z,54.08
2018-09-15T22:19:55.037Z,51.45
2018-09-15T22:21:57.325Z,51.88
2018-09-15T22:23:59.587Z,51.70
2018-09-15T22:26:01.853Z,53.65
2018-09-15T22:28:04.107Z,46.20
2018-09-15T22:30:06.446Z,55.12
2018-09-15T22:32:08.687Z,51.33
2018-09-15T22:34:10.979Z,48.73
2018-09-15T22:36:13.244Z,47.80
2018-09-15T22:38:15.525Z,48.40
2018-09-15T22:40:17.794Z,45.90
2018-09-15T22:42:20.084Z,46.55
2018-09-15T22:44:22.334Z,43.48
2018-09-15T22:46:24.585Z,43.73
2018-09-15T22:48:26.888Z,49.50
2018-09-15T22:50:29.167Z,45.00
2018-09-15T22:52:31.419Z,44.55
2018-09-15T22:54:33.695Z,42.85
2018-09-15T22:56:35.983Z,44.18
2018-09-15T22:58:38.228Z,43.98
2018-09-15T23:00:40.496Z,42.00
2018-09-15T23:02:42.792Z,41.23
2018-09-15T23:04:45.095Z,44.20
2018-09-15T23:06:47.372Z,39.90
2018-09-15T23:08:49.623Z,40.48
2018-09-15T23:10:51.915Z,42.15
2018-09-15T23:12:54.161Z,40.78
2018-09-15T23:14:56.434Z,40.17
2018-09-15T23:16:58.725Z,43.98
2018-09-15T23:19:00.989Z,38.92
2018-09-15T23:21:03.328Z,70.70
2018-09-15T23:23:05.585Z,89.25
2018-09-15T23:25:07.842Z,390.27
2018-09-15T23:27:10.119Z,210.17
2018-09-15T23:29:12.414Z,238.25
2018-09-15T23:31:14.682Z,216.40
2018-09-15T23:33:16.960Z,221.18
2018-09-15T23:35:19.259Z,205.37
2018-09-15T23:37:21.668Z,188.03
2018-09-15T23:39:23.934Z,181.90
2018-09-15T23:41:26.224Z,183.72
2018-09-15T23:43:28.497Z,188.55
2018-09-15T23:45:30.754Z,183.75
2018-09-15T23:47:33.052Z,181.80
2018-09-15T23:49:35.322Z,190.50
2018-09-15T23:51:37.595Z,167.07
2018-09-15T23:53:39.879Z,155.30
2018-09-15T23:55:42.176Z,163.10
2018-09-15T23:57:44.482Z,159.52
2018-09-15T23:59:46.740Z,155.70
